Latest Weather Observations for Broken Hill Airport

IDN60801

Issued at 3:53 am EDT Friday 28 January 2022 (issued every 10 minutes, with the page automatically refreshed every 10 minutes)

About weather observations | Map of weather stations | Latest weather observations for NSW | Other Formats
Station Details ID: 047048 Name: BROKEN HILL AIRPORT AWS Lat: -32.00 Lon: 141.47 Height: 281.3 m
Data from the previous 72 hours. | See also: Recent months at Broken Hill Airport

Observations are collected in the New South Wales time zone (Eastern Standard Time) which includes daylight savings in the summer period. Therefore 'Rain since 9am' totals and other values are based on the New South Wales time zone, which may differ from local time.

Date/Time
EDT
Temp
°C
App
Temp
°C
Dew
Point
°C
Rel
Hum
%
Delta-T
°C
Wind Press
QNH
hPa
Press
MSL
hPa
Rain since
9am
mm
Dir  Spd
km/h
Gust
km/h
Spd
kts
Gust
kts
28/03:30am 28.6 29.0 19.0 56 6.3 NE 15 20 8 11 1008.2 1006.5 0.0
28/03:00am 28.2 27.6 18.9 57 6.1 NE 20 28 11 15 1008.1 1006.4 0.0
28/02:30am 28.5 24.8 19.2 57 6.1 NNE 37 52 20 28 1007.8 1006.2 0.0
28/02:00am 31.1 28.9 17.8 45 8.6 NNE 26 35 14 19 1007.7 1006.1 0.0
28/01:30am 31.8 30.7 17.7 43 9.1 N 20 33 11 18 1007.7 1006.1 0.0
28/01:00am 32.0 28.1 17.9 43 9.2 NNE 35 46 19 25 1006.9 1005.2 0.0
28/12:30am 32.7 28.3 15.7 36 10.7 NE 33 43 18 23 1006.7 1005.0 0.0
28/12:19am 32.5 28.8 15.1 35 10.9 ENE 28 44 15 24 1006.8 1005.1 0.0
28/12:00am 33.2 31.0 14.8 33 11.5 NE 20 26 11 14 1006.6 1004.9 0.0
 
Date/Time
EDT
Temp
°C
App
Temp
°C
Dew
Point
°C
Rel
Hum
%
Delta-T
°C
Wind Press
QNH
hPa
Press
MSL
hPa
Rain since
9am
mm
Dir  Spd
km/h
Gust
km/h
Spd
kts
Gust
kts
27/11:30pm 33.7 31.4 14.2 30 12.1 NE 19 20 10 11 1006.6 1004.9 0.0
27/11:00pm 33.9 31.5 13.9 30 12.4 NE 19 22 10 12 1006.5 1004.8 0.0
27/10:30pm 34.2 31.5 13.6 28 12.7 NE 20 26 11 14 1006.3 1004.6 0.0
27/10:00pm 34.9 32.3 13.7 28 13.1 ENE 20 28 11 15 1005.7 1004.0 0.0
27/09:30pm 35.5 34.2 12.5 25 14.0 NNE 11 26 6 14 1005.4 1003.7 0.0
27/09:00pm 35.9 34.9 10.9 22 14.9 NW 7 9 4 5 1005.0 1003.3 0.0
27/08:30pm 36.5 35.4 10.6 21 15.4 NW 7 9 4 5 1004.6 1002.9 0.0
27/08:00pm 37.5 36.4 10.7 20 16.1 NW 7 11 4 6 1004.3 1002.5 0.0
27/07:30pm 38.0 36.5 10.4 19 16.4 WNW 9 11 5 6 1003.9 1002.2 0.0
27/07:00pm 38.1 37.2 10.5 19 16.5 NNE 6 13 3 7 1003.8 1002.1 0.0
27/06:30pm 38.1 37.3 11.2 20 16.3 WSW 6 11 3 6 1003.9 1002.2 0.0
27/06:00pm 36.6 33.6 12.1 23 14.9 NW 19 26 10 14 1004.3 1002.5 0.0
27/05:30pm 37.6 36.9 11.5 21 15.8 S 6 13 3 7 1004.1 1002.4 0.0
27/05:00pm 37.4 35.4 11.4 21 15.7 NW 13 19 7 10 1004.6 1002.9 0.0
27/04:30pm 38.9 37.4 11.9 20 16.5 ESE 11 19 6 10 1004.9 1003.2 0.0
27/04:00pm 38.5 36.4 12.3 21 16.1 E 15 24 8 13 1005.3 1003.6 0.0
27/03:30pm 38.3 37.1 12.8 22 15.8 WNW 11 19 6 10 1005.7 1004.0 0.0
27/03:00pm 37.7 36.3 12.3 22 15.6 NE 11 26 6 14 1006.1 1004.4 0.0
27/02:30pm 36.7 35.9 12.8 23 14.7 N 9 15 5 8 1006.4 1004.7 0.0
27/02:00pm 37.3 35.5 13.3 23 14.9 NNW 15 24 8 13 1006.7 1005.0 0.0
27/01:30pm 36.8 36.4 14.1 25 14.2 NW 9 19 5 10 1007.0 1005.3 0.0
27/01:00pm 35.3 35.1 14.6 29 13.0 NNW 9 17 5 9 1007.2 1005.5 0.0
27/12:30pm 34.4 33.3 14.3 30 12.5 N 13 30 7 16 1007.5 1005.8 0.0
27/12:00pm 34.0 33.0 14.5 31 12.2 N 13 28 7 15 1007.6 1006.0 0.0
27/11:30am 34.0 32.7 15.9 33 11.5 N 17 26 9 14 1007.8 1006.2 0.0
27/11:00am 32.3 31.1 16.2 38 10.2 N 17 28 9 15 1007.9 1006.3 0.0
27/10:30am 31.7 30.1 16.4 39 9.7 NNE 20 30 11 16 1007.9 1006.3 0.0
27/10:00am 30.6 28.6 17.3 45 8.5 NNE 24 32 13 17 1008.3 1006.6 0.0
27/09:30am 30.5 28.2 17.6 46 8.3 NNE 26 33 14 18 1008.1 1006.4 0.0
27/09:00am 29.5 28.2 16.7 46 8.1 NNE 19 28 10 15 1007.8 1006.2 0.0
27/08:30am 28.8 27.2 16.0 45 8.0 NE 19 24 10 13 1007.5 1005.8 0.0
27/08:00am 28.2 27.0 16.1 47 7.6 NNE 17 20 9 11 1007.3 1005.6 0.0
27/07:30am 27.4 26.6 16.1 50 7.0 NE 15 17 8 9 1007.0 1005.3 0.0
27/07:00am 27.2 26.3 15.9 50 7.0 NE 15 17 8 9 1006.7 1005.0 0.0
27/06:30am 27.7 26.4 15.7 48 7.5 NE 17 20 9 11 1006.1 1004.4 0.0
27/06:00am 28.3 27.3 15.6 46 7.9 NNE 15 19 8 10 1006.0 1004.3 0.0
27/05:30am 28.3 27.1 16.2 47 7.6 NE 17 19 9 10 1005.7 1004.0 0.0
27/05:00am 27.9 27.6 16.5 50 7.2 NE 13 17 7 9 1005.6 1003.9 0.0
27/04:30am 28.7 29.5 16.3 47 7.8 NNE 7 9 4 5 1005.7 1004.0 0.0
27/04:00am 28.9 29.2 16.1 46 8.0 NNE 9 11 5 6 1005.6 1003.9 0.0
27/03:30am 29.0 29.0 16.2 46 8.1 NE 11 13 6 7 1005.5 1003.8 0.0
27/03:00am 29.5 31.6 16.3 45 8.3 CALM 0 0 0 0 1005.9 1004.2 0.0
27/02:30am 29.5 31.8 16.7 46 8.1 CALM 0 0 0 0 1006.3 1004.6 0.0
27/02:00am 29.5 32.0 17.3 47 7.8 CALM 0 0 0 0 1006.3 1004.6 0.0
27/01:30am 29.3 31.9 17.5 49 7.6 CALM 0 0 0 0 1006.4 1004.7 0.0
27/01:00am 29.1 30.9 18.2 51 7.1 SE 6 9 3 5 1006.6 1004.9 0.0
27/12:30am 29.1 28.6 17.9 50 7.2 SSW 17 20 9 11 1006.5 1004.8 0.0
27/12:00am 32.0 30.4 15.9 38 10.2 NE 19 28 10 15 1006.2 1004.5 0.0
 
Date/Time
EDT
Temp
°C
App
Temp
°C
Dew
Point
°C
Rel
Hum
%
Delta-T
°C
Wind Press
QNH
hPa
Press
MSL
hPa
Rain since
9am
mm
Dir  Spd
km/h
Gust
km/h
Spd
kts
Gust
kts
26/11:30pm 32.0 31.9 15.9 38 10.2 NNE 11 17 6 9 1006.3 1004.6 0.0
26/11:00pm 32.4 30.6 15.4 36 10.7 NNE 19 28 10 15 1005.9 1004.2 0.0
26/10:30pm 32.5 30.7 15.5 36 10.7 NE 19 24 10 13 1005.3 1003.6 0.0
26/10:00pm 32.7 29.3 15.7 36 10.8 ENE 28 35 15 19 1004.6 1002.9 0.0
26/09:30pm 32.8 30.0 15.3 34 11.0 NE 24 33 13 18 1003.9 1002.2 0.0
26/09:16pm 33.0 30.1 15.0 33 11.3 ENE 24 37 13 20 1003.6 1001.9 0.0
26/09:00pm 33.8 32.0 13.3 29 12.6 NE 15 19 8 10 1003.6 1001.9 0.0
26/08:30pm 34.1 32.0 13.5 28 12.6 NNE 17 20 9 11 1003.5 1001.8 0.0
26/08:00pm 34.2 33.6 13.6 28 12.7 N 9 15 5 8 1003.6 1001.9 0.0
26/07:30pm 34.4 33.7 13.3 28 12.9 N 9 15 5 8 1003.6 1001.9 0.0
26/07:00pm 34.8 32.7 13.6 28 13.1 NNE 17 24 9 13 1003.7 1002.0 0.0
26/06:30pm 35.4 34.4 13.5 26 13.6 NW 11 20 6 11 1003.7 1002.0 0.0
26/06:00pm 34.9 32.6 13.1 27 13.4 NNW 17 26 9 14 1003.8 1002.1 0.0
26/05:30pm 34.8 33.3 13.0 26 13.3 N 13 22 7 12 1004.0 1002.3 0.0
26/05:00pm 35.2 33.6 12.8 26 13.7 N 13 22 7 12 1004.3 1002.5 0.0
26/04:30pm 34.8 34.2 13.6 28 13.1 NNE 9 19 5 10 1004.5 1002.8 0.0
26/04:00pm 34.9 33.4 13.1 27 13.4 N 13 24 7 13 1004.9 1003.2 0.0
26/03:30pm 35.0 33.9 14.3 29 12.9 NNW 13 32 7 17 1005.3 1003.6 0.0
26/03:00pm 34.7 33.5 15.1 31 12.4 NNW 15 33 8 18 1005.7 1004.0 0.0
26/02:30pm 34.3 33.0 14.7 30 12.3 NNW 15 24 8 13 1006.2 1004.5 0.0
26/02:00pm 33.3 31.2 14.8 32 11.6 NNE 19 28 10 15 1006.6 1004.9 0.0
26/01:30pm 33.0 31.2 15.5 35 11.0 NE 19 28 10 15 1006.8 1005.1 0.0
26/01:00pm 32.2 31.6 15.7 37 10.4 NNE 13 20 7 11 1007.1 1005.4 0.0
26/12:30pm 30.7 30.5 16.7 43 8.9 N 13 20 7 11 1007.6 1006.0 0.0
26/12:00pm 32.4 32.5 17.5 41 9.7 NNE 13 22 7 12 1007.7 1006.1 0.0
26/11:30am 30.1 30.5 18.2 49 7.7 N 13 20 7 11 1007.9 1006.3 0.0
26/11:00am 29.3 29.8 18.4 51 7.1 N 13 20 7 11 1008.2 1006.5 0.0
26/10:30am 29.0 29.6 18.7 53 6.7 N 13 20 7 11 1008.3 1006.6 0.0
26/10:00am 28.8 29.9 18.9 55 6.5 NNE 11 19 6 10 1008.2 1006.5 0.0
26/09:30am 28.6 30.8 19.2 56 6.2 NE 6 15 3 8 1008.2 1006.5 0.0
26/09:00am 27.6 30.4 18.9 59 5.7 N 2 7 1 4 1008.2 1006.5 0.0
26/08:30am 26.7 28.5 18.8 62 5.1 NE 7 9 4 5 1007.9 1006.3 0.0
26/08:00am 25.6 27.1 19.0 67 4.3 ENE 9 13 5 7 1007.6 1006.0 0.0
26/07:30am 24.1 27.1 18.5 71 3.6 CALM 0 0 0 0 1007.3 1005.6 0.0
26/07:00am 22.8 25.4 17.5 72 3.3 CALM 0 0 0 0 1007.0 1005.3 0.0
26/06:30am 24.0 27.2 18.9 73 3.3 CALM 0 0 0 0 1006.8 1005.1 0.0
26/06:00am 24.0 27.2 18.9 73 3.3 CALM 0 0 0 0 1006.6 1004.9 0.0
26/05:30am 24.3 26.5 19.1 73 3.4 NW 6 9 3 5 1006.3 1004.6 0.0
26/05:00am 24.1 25.9 18.7 72 3.5 NW 7 9 4 5 1006.1 1004.4 0.0
26/04:30am 24.4 26.4 18.8 71 3.6 NW 6 9 3 5 1006.0 1004.3 0.0
26/04:00am 24.9 26.4 18.8 69 3.9 NW 9 11 5 6 1005.9 1004.2 0.0
26/03:30am 25.2 26.8 19.1 69 4.0 NW 9 13 5 7 1005.9 1004.2 0.0
26/03:00am 25.5 26.9 18.7 66 4.4 NW 9 13 5 7 1005.9 1004.2 0.0
26/02:30am 26.1 26.7 18.5 63 4.9 NW 13 17 7 9 1006.1 1004.4 0.0
26/02:00am 26.2 27.1 18.3 61 5.1 NNW 11 15 6 8 1006.4 1004.7 0.0
26/01:30am 26.2 27.3 18.1 61 5.2 NNW 9 13 5 7 1006.6 1004.9 0.0
26/01:00am 26.4 27.6 18.3 61 5.2 NW 9 11 5 6 1006.7 1005.0 0.0
26/12:30am 26.6 27.6 17.7 58 5.7 NW 9 11 5 6 1006.7 1005.0 0.0
26/12:00am 26.8 29.1 17.8 57 5.8 NW 2 6 1 3 1006.7 1005.0 0.0
 
Date/Time
EDT
Temp
°C
App
Temp
°C
Dew
Point
°C
Rel
Hum
%
Delta-T
°C
Wind Press
QNH
hPa
Press
MSL
hPa
Rain since
9am
mm
Dir  Spd
km/h
Gust
km/h
Spd
kts
Gust
kts
25/11:30pm 27.3 28.3 17.8 56 6.1 NNW 9 11 5 6 1006.7 1005.0 0.0
25/11:00pm 27.6 29.0 17.7 54 6.3 NNW 7 11 4 6 1006.3 1004.6 0.0
25/10:30pm 27.5 28.2 17.1 53 6.6 WNW 9 11 5 6 1006.3 1004.6 0.0
25/10:00pm 28.3 29.1 17.2 51 7.1 WNW 9 11 5 6 1005.9 1004.2 0.0
25/09:30pm 28.7 29.3 16.9 48 7.5 WNW 9 11 5 6 1005.7 1004.0 0.0
25/09:00pm 29.4 29.9 16.6 46 8.1 NW 9 11 5 6 1005.4 1003.7 0.0
25/08:30pm 30.1 30.0 16.1 42 8.8 NNW 11 15 6 8 1005.2 1003.5 0.0
25/08:00pm 30.9 29.9 15.7 39 9.6 NNW 15 20 8 11 1005.0 1003.3 0.0
25/07:30pm 31.7 30.8 14.8 36 10.5 NNE 13 19 7 10 1005.0 1003.3 0.0
25/07:00pm 31.4 30.2 14.1 35 10.6 NNE 13 19 7 10 1004.8 1003.1 0.0
25/06:30pm 31.0 29.9 14.2 36 10.3 N 13 19 7 10 1004.8 1003.1 0.0
25/06:00pm 30.9 30.3 14.5 37 10.1 N 11 17 6 9 1004.9 1003.2 0.0
25/05:30pm 31.5 29.8 14.6 35 10.4 NE 17 30 9 16 1004.9 1003.2 0.0
25/05:00pm 30.9 29.5 14.5 37 10.1 N 15 24 8 13 1005.1 1003.4 0.0
25/04:30pm 30.6 29.5 14.3 37 10.0 NNW 13 22 7 12 1005.2 1003.5 0.0
25/04:00pm 30.7 29.6 15.2 39 9.7 NE 15 26 8 14 1005.4 1003.7 0.0
25/03:30pm 30.0 28.1 15.3 41 9.2 NNE 19 35 10 19 1005.6 1003.9 0.0
25/03:08pm 30.7 29.3 15.5 39 9.5 NNE 17 28 9 15 1005.7 1004.0 0.0
25/03:00pm 30.1 28.1 15.4 41 9.2 NNE 20 37 11 20 1005.7 1004.0 0.0
25/02:49pm 31.0 29.3 16.2 41 9.3 NE 20 30 11 16 1005.7 1004.0 0.0
25/02:30pm 29.8 28.5 15.9 43 8.7 NE 17 28 9 15 1005.9 1004.2 0.0
25/02:00pm 30.5 29.3 16.1 41 9.1 NE 17 24 9 13 1006.2 1004.5 0.0
25/01:30pm 29.3 28.0 15.8 44 8.4 NNE 17 26 9 14 1006.6 1004.9 0.0
25/01:00pm 29.6 29.6 17.1 47 8.0 N 13 20 7 11 1006.8 1005.1 0.0
25/12:30pm 27.9 27.4 15.9 48 7.5 NNE 13 24 7 13 1007.0 1005.3 0.0
25/12:00pm 27.6 26.7 16.9 52 6.8 N 17 24 9 13 1007.2 1005.5 0.0
25/11:30am 25.6 25.4 16.7 58 5.6 NNW 13 17 7 9 1007.4 1005.7 0.0
25/11:00am 25.3 24.5 17.0 60 5.2 NNW 17 22 9 12 1007.4 1005.7 0.0
25/10:30am 25.0 24.9 17.0 61 5.0 NW 13 22 7 12 1007.3 1005.6 0.0
25/10:00am 25.1 24.8 16.5 59 5.4 NW 13 19 7 10 1007.0 1005.3 0.0
25/09:30am 25.3 26.1 17.2 61 5.1 NW 9 15 5 8 1006.8 1005.1 0.0
25/09:00am 23.8 23.1 17.3 67 4.1 WNW 17 20 9 11 1006.9 1005.2 0.0
25/08:30am 23.4 23.5 17.4 69 3.8 NW 13 19 7 10 1006.6 1004.9 0.0
25/08:00am 22.3 23.0 17.0 72 3.3 WNW 9 13 5 7 1006.5 1004.8 0.0
25/07:30am 21.9 22.5 16.8 73 3.1 NNW 9 11 5 6 1006.4 1004.7 0.0
25/07:00am 21.8 22.5 17.0 74 3.0 NNW 9 13 5 7 1006.0 1004.3 0.0
25/06:30am 21.8 22.6 17.4 76 2.7 NNW 9 13 5 7 1005.9 1004.2 0.0
25/06:00am 21.6 21.9 17.8 79 2.4 NNW 13 17 7 9 1005.8 1004.1 0.0
25/05:30am 21.5 20.9 17.5 78 2.5 NNW 17 24 9 13 1005.5 1003.8 0.0
25/05:00am 21.6 21.2 18.0 80 2.3 NW 17 20 9 11 1005.3 1003.6 0.0
25/04:30am 21.8 21.7 17.8 78 2.5 NW 15 22 8 12 1005.3 1003.6 0.0

Other formats

Comma delimited format used in spreadsheet applications
http://www.bom.gov.au/fwo/IDN60801/IDN60801.94691.axf

JavaScript Object Notation format (JSON) in row-major order
http://www.bom.gov.au/fwo/IDN60801/IDN60801.94691.json

Data quality

Most of these data are generated automatically and are frequently updated. Quality checks on data are not normally performed. It is possible for incorrect values to appear. Refer to information at About Latest Weather Observations and please check the disclaimer before using these data.